Create Tblcommutelog Verified Points Advance Search
| # | Trip ID | Id Commuter | Trip Date | Trip Num | Current Lat | Current Lng | Delta Distance | Current Time | Activity | Activity Confidence | Current Speed | |
|---|---|---|---|---|---|---|---|---|---|---|---|---|
| 72141 | 250602_780517_6438333_0617 | 780517 | (not set) | (not set) | 38.861225582606 | -77.087686267383 | 0 | 2025-06-02 10:17:49.054 | unknown | 100 | 0.85384498466655 | |
| 72142 | 250602_780517_6438333_0617 | 780517 | (not set) | (not set) | 38.861225582606 | -77.087686267383 | 0 | 2025-06-02 10:17:49.139 | unknown | 100 | 0.85384498466655 | |
| 72143 | 250602_784706_16442607_0549 | 784706 | (not set) | (not set) | 39.0829949 | -77.079273433333 | 20.924 | 2025-06-02 10:17:55.604 | in_vehicle | 100 | 8.4401012096882 | |
| 72144 | 250602_781350_16450333_0607 | 781350 | (not set) | (not set) | 39.074145214111 | -76.719249498044 | 1.5692 | 2025-06-02 10:17:57.852 | in_vehicle | 100 | 10.55012651211 | |
| 72145 | 250602_782768_16477364_0611 | 782768 | (not set) | (not set) | 39.3725275 | -76.5820173 | 0.4161 | 2025-06-02 10:17:58.294 | in_vehicle | 100 | 2.1591996209107 | |
| 72146 | 250602_785447_16488639_0607 | 785447 | (not set) | (not set) | 39.302408190359 | -76.582968386713 | 9.7658 | 2025-06-02 10:18:00.244 | in_vehicle | 100 | 8.5831537725643 | |
| 72147 | 250602_781350_16450333_0607 | 781350 | (not set) | (not set) | 39.07222436301 | -76.72179846683 | 1.7598 | 2025-06-02 10:18:00.568 | in_vehicle | 100 | 10.581419260239 | |
| 72148 | 250602_606167_6461772_0603 | 606167 | (not set) | (not set) | 38.866243661545 | -77.05544894775 | 11.693 | 2025-06-02 10:18:02.2 | in_vehicle | 100 | 4.5553300490849 | |
| 72149 | 250602_782768_16477364_0611 | 782768 | (not set) | (not set) | 39.3716815 | -76.5824762 | 0.4794 | 2025-06-02 10:18:09.214 | in_vehicle | 100 | 5.5164644559085 | |
| 72150 | 250602_781350_16450333_0607 | 781350 | (not set) | (not set) | 39.070474763343 | -76.724625509456 | 1.954 | 2025-06-02 10:18:09.979 | in_vehicle | 100 | 11.587257592962 | |
| 72151 | 250602_784706_16442607_0549 | 784706 | (not set) | (not set) | 39.0809133 | -77.080438916667 | 21.0806 | 2025-06-02 10:18:10.483 | in_vehicle | 100 | 4.4838037676469 | |
| 72152 | 250602_785447_16488639_0607 | 785447 | (not set) | (not set) | 39.302459166673 | -76.586056598947 | 9.9314 | 2025-06-02 10:18:14.182 | still | 33 | 8.5026867059465 | |
| 72153 | 250602_781350_16450333_0607 | 781350 | (not set) | (not set) | 39.06823812591 | -76.727046832061 | 2.1558 | 2025-06-02 10:18:21.433 | in_vehicle | 100 | 12.00747449641 | |
| 72154 | 250602_785447_16488639_0607 | 785447 | (not set) | (not set) | 39.303658503692 | -76.588636062121 | 10.0926 | 2025-06-02 10:18:29.063 | in_vehicle | 100 | 8.4579827800477 | |
| 72155 | 250602_781350_16450333_0607 | 781350 | (not set) | (not set) | 39.065846078041 | -76.728875758136 | 2.348 | 2025-06-02 10:18:31.673 | in_vehicle | 100 | 13.008842436543 | |
| 72156 | 250602_784706_16442607_0549 | 784706 | (not set) | (not set) | 39.080169266667 | -77.081993166667 | 21.1787 | 2025-06-02 10:18:33.577 | in_vehicle | 100 | 4.8280239970674 | |
| 72157 | 250602_785447_16488639_0607 | 785447 | (not set) | (not set) | 39.30533385336 | -76.590873014298 | 10.2591 | 2025-06-02 10:18:42.718 | in_vehicle | 100 | 8.7306767280303 | |
| 72158 | 250602_753636_16508616_0557 | 753636 | (not set) | (not set) | 39.041602182778 | -77.109175530004 | 3.16 | 2025-06-02 10:18:43.195 | in_vehicle | 100 | -0.44703925898772 | |
| 72159 | 250602_781350_16450333_0607 | 781350 | (not set) | (not set) | 39.06293836424 | -76.730899600969 | 2.5762 | 2025-06-02 10:18:43.478 | in_vehicle | 100 | 13.576582295457 | |
| 72160 | 250602_784706_16442607_0549 | 784706 | (not set) | (not set) | 39.07966395 | -77.083657233333 | 21.2747 | 2025-06-02 10:18:45.697 | in_vehicle | 100 | 6.2540792332383 |